This is the latest recevied weather packets stored in our database for station/object W1CAT. If no packets are shown the sender has not sent any weather packets the latest 10 day(s).
| Time | Temp. | Humidity | Pressure | Rain* | Wind** | Luminosity | Snow |
|---|---|---|---|---|---|---|---|
| 1778115819 | 5.56° C | 57% | - | 0 mm | - | - | - |
| 1778115516 | 5° C | 55% | - | 0 mm | - | - | - |
| 1778115213 | 5.56° C | 56% | - | 0 mm | - | - | - |
| 1778114910 | 5° C | 58% | - | 0 mm | - | - | - |
| 1778114607 | 4.44° C | 58% | - | 0 mm | - | - | - |
| 1778114304 | 5° C | 57% | - | 0 mm | - | - | - |
| 1778114000 | 5.56° C | 56% | - | 0 mm | - | - | - |
| 1778113695 | 4.44° C | 57% | - | 0 mm | - | - | - |
| 1778113391 | 5° C | 57% | - | 0 mm | - | - | - |
| 1778113084 | 6.11° C | 53% | - | 0 mm | - | - | - |
| 1778112781 | 6.11° C | 54% | - | 0 mm | - | - | - |
| 1778112476 | 7.22° C | 51% | - | 0 mm | - | - | - |
| 1778112172 | 6.67° C | 54% | - | 0 mm | - | - | - |
| 1778111869 | 7.22° C | 50% | - | 0 mm | - | - | - |
| 1778111564 | 5.56° C | 53% | - | 0 mm | - | - | - |
| 1778111262 | 5° C | 57% | - | 0 mm | - | - | - |
| 1778110958 | 5° C | 58% | - | 0 mm | - | - | - |
| 1778110656 | 5° C | 58% | - | 0 mm | - | - | - |
| 1778110353 | 6.67° C | 54% | - | 0 mm | - | - | - |
| 1778110049 | 7.22° C | 54% | - | 0 mm | - | - | - |
| 1778109744 | 7.22° C | 54% | - | 0 mm | - | - | - |
| 1778109441 | 6.67° C | 55% | - | 0 mm | - | - | - |
| 1778109140 | 7.22° C | 54% | - | 0 mm | - | - | - |
| 1778108836 | 7.78° C | 53% | - | 0 mm | - | - | - |
| 1778108533 | 7.78° C | 54% | - | 0 mm | - | - | - |
* Rain latest hour (hover to see other rain measurements)
** Current wind speed in m/s (hover to see current wind gust speed)